sensor_id;sensor_type;location;lat;lon;timestamp;P1;durP1;ratioP1;P2;durP2;ratioP2
13325;SDS011;6732;51.044;3.746;2023-04-01T00:00:17;8.77;;;4.23;;
13325;SDS011;6732;51.044;3.746;2023-04-01T00:02:43;8.47;;;4.03;;
13325;SDS011;6732;51.044;3.746;2023-04-01T00:05:09;9.67;;;4.37;;
13325;SDS011;6732;51.044;3.746;2023-04-01T00:07:36;9.10;;;3.97;;
13325;SDS011;6732;51.044;3.746;2023-04-01T00:10:03;10.37;;;4.20;;
13325;SDS011;6732;51.044;3.746;2023-04-01T00:12:30;9.77;;;3.87;;
13325;SDS011;6732;51.044;3.746;2023-04-01T00:14:56;8.63;;;4.43;;
13325;SDS011;6732;51.044;3.746;2023-04-01T00:17:22;12.63;;;4.80;;
13325;SDS011;6732;51.044;3.746;2023-04-01T00:19:48;9.67;;;4.40;;
13325;SDS011;6732;51.044;3.746;2023-04-01T00:22:13;8.40;;;4.40;;
13325;SDS011;6732;51.044;3.746;2023-04-01T00:24:39;9.03;;;4.60;;
13325;SDS011;6732;51.044;3.746;2023-04-01T00:27:05;9.37;;;4.57;;
13325;SDS011;6732;51.044;3.746;2023-04-01T00:29:32;9.57;;;4.20;;
13325;SDS011;6732;51.044;3.746;2023-04-01T00:31:58;8.27;;;4.60;;
13325;SDS011;6732;51.044;3.746;2023-04-01T00:34:24;10.63;;;4.20;;
13325;SDS011;6732;51.044;3.746;2023-04-01T00:36:51;8.77;;;3.87;;
13325;SDS011;6732;51.044;3.746;2023-04-01T00:39:18;8.97;;;3.90;;
13325;SDS011;6732;51.044;3.746;2023-04-01T00:41:46;7.20;;;4.00;;
13325;SDS011;6732;51.044;3.746;2023-04-01T00:44:23;10.23;;;4.20;;
13325;SDS011;6732;51.044;3.746;2023-04-01T00:46:50;8.30;;;4.03;;
13325;SDS011;6732;51.044;3.746;2023-04-01T00:49:19;7.70;;;3.90;;
13325;SDS011;6732;51.044;3.746;2023-04-01T00:51:48;8.03;;;3.97;;
13325;SDS011;6732;51.044;3.746;2023-04-01T00:54:17;10.07;;;4.33;;
13325;SDS011;6732;51.044;3.746;2023-04-01T00:56:45;6.73;;;3.47;;
13325;SDS011;6732;51.044;3.746;2023-04-01T01:02:15;6.93;;;3.27;;
13325;SDS011;6732;51.044;3.746;2023-04-01T01:04:42;5.70;;;2.93;;
13325;SDS011;6732;51.044;3.746;2023-04-01T01:29:55;8.07;;;3.87;;
13325;SDS011;6732;51.044;3.746;2023-04-01T01:32:38;7.87;;;4.00;;
13325;SDS011;6732;51.044;3.746;2023-04-01T01:35:19;9.07;;;3.57;;
13325;SDS011;6732;51.044;3.746;2023-04-01T01:37:53;9.27;;;4.17;;
13325;SDS011;6732;51.044;3.746;2023-04-01T01:40:24;11.23;;;4.07;;
13325;SDS011;6732;51.044;3.746;2023-04-01T01:42:52;10.50;;;3.80;;
13325;SDS011;6732;51.044;3.746;2023-04-01T01:45:23;8.60;;;3.60;;
13325;SDS011;6732;51.044;3.746;2023-04-01T01:47:51;8.83;;;3.27;;
13325;SDS011;6732;51.044;3.746;2023-04-01T01:50:19;9.63;;;3.90;;
13325;SDS011;6732;51.044;3.746;2023-04-01T01:52:46;9.97;;;3.63;;
13325;SDS011;6732;51.044;3.746;2023-04-01T01:55:23;8.93;;;3.67;;
13325;SDS011;6732;51.044;3.746;2023-04-01T01:57:58;12.20;;;4.03;;
13325;SDS011;6732;51.044;3.746;2023-04-01T02:00:30;7.00;;;2.90;;
13325;SDS011;6732;51.044;3.746;2023-04-01T02:02:58;7.03;;;3.40;;
13325;SDS011;6732;51.044;3.746;2023-04-01T02:05:26;9.67;;;3.07;;
13325;SDS011;6732;51.044;3.746;2023-04-01T02:07:59;8.17;;;3.00;;
13325;SDS011;6732;51.044;3.746;2023-04-01T02:10:31;6.57;;;3.10;;
13325;SDS011;6732;51.044;3.746;2023-04-01T02:13:01;7.23;;;2.93;;
13325;SDS011;6732;51.044;3.746;2023-04-01T02:15:47;5.90;;;2.97;;
13325;SDS011;6732;51.044;3.746;2023-04-01T02:18:15;7.07;;;2.70;;
13325;SDS011;6732;51.044;3.746;2023-04-01T02:20:44;5.63;;;3.00;;
13325;SDS011;6732;51.044;3.746;2023-04-01T02:23:10;5.23;;;2.77;;
13325;SDS011;6732;51.044;3.746;2023-04-01T02:25:37;6.67;;;3.20;;
13325;SDS011;6732;51.044;3.746;2023-04-01T02:28:06;7.93;;;3.40;;
13325;SDS011;6732;51.044;3.746;2023-04-01T02:30:34;9.43;;;3.50;;
13325;SDS011;6732;51.044;3.746;2023-04-01T02:33:02;9.37;;;3.60;;
13325;SDS011;6732;51.044;3.746;2023-04-01T02:35:30;8.00;;;3.57;;
13325;SDS011;6732;51.044;3.746;2023-04-01T02:38:00;7.33;;;3.30;;
13325;SDS011;6732;51.044;3.746;2023-04-01T02:40:27;8.73;;;3.50;;
13325;SDS011;6732;51.044;3.746;2023-04-01T02:42:53;10.30;;;3.70;;
13325;SDS011;6732;51.044;3.746;2023-04-01T02:45:19;8.77;;;3.27;;
13325;SDS011;6732;51.044;3.746;2023-04-01T02:47:45;8.03;;;3.87;;
13325;SDS011;6732;51.044;3.746;2023-04-01T02:50:10;9.20;;;4.00;;
13325;SDS011;6732;51.044;3.746;2023-04-01T02:52:37;8.80;;;3.60;;
13325;SDS011;6732;51.044;3.746;2023-04-01T02:55:03;8.70;;;4.03;;
13325;SDS011;6732;51.044;3.746;2023-04-01T02:57:30;8.97;;;4.43;;
13325;SDS011;6732;51.044;3.746;2023-04-01T02:59:56;10.27;;;4.10;;
13325;SDS011;6732;51.044;3.746;2023-04-01T03:02:21;7.33;;;4.30;;
13325;SDS011;6732;51.044;3.746;2023-04-01T03:04:47;10.17;;;4.47;;
13325;SDS011;6732;51.044;3.746;2023-04-01T03:07:13;6.17;;;3.77;;
13325;SDS011;6732;51.044;3.746;2023-04-01T03:09:39;7.90;;;4.07;;
13325;SDS011;6732;51.044;3.746;2023-04-01T03:12:08;8.23;;;4.40;;
13325;SDS011;6732;51.044;3.746;2023-04-01T03:14:34;7.97;;;3.53;;
13325;SDS011;6732;51.044;3.746;2023-04-01T03:17:00;8.50;;;4.30;;
13325;SDS011;6732;51.044;3.746;2023-04-01T03:19:26;9.33;;;4.00;;
13325;SDS011;6732;51.044;3.746;2023-04-01T03:21:51;8.93;;;4.23;;
13325;SDS011;6732;51.044;3.746;2023-04-01T03:24:17;6.83;;;3.93;;
13325;SDS011;6732;51.044;3.746;2023-04-01T03:26:43;6.57;;;3.80;;
13325;SDS011;6732;51.044;3.746;2023-04-01T03:29:09;7.87;;;3.97;;
13325;SDS011;6732;51.044;3.746;2023-04-01T03:31:35;7.73;;;3.30;;
13325;SDS011;6732;51.044;3.746;2023-04-01T03:34:01;5.37;;;3.47;;
13325;SDS011;6732;51.044;3.746;2023-04-01T03:36:27;9.60;;;3.20;;
13325;SDS011;6732;51.044;3.746;2023-04-01T03:38:53;5.23;;;3.33;;
13325;SDS011;6732;51.044;3.746;2023-04-01T03:41:18;5.60;;;2.63;;
13325;SDS011;6732;51.044;3.746;2023-04-01T03:43:44;5.57;;;2.60;;
13325;SDS011;6732;51.044;3.746;2023-04-01T03:46:11;2.80;;;2.30;;
13325;SDS011;6732;51.044;3.746;2023-04-01T03:48:41;4.00;;;2.27;;
13325;SDS011;6732;51.044;3.746;2023-04-01T03:51:07;4.23;;;2.20;;
13325;SDS011;6732;51.044;3.746;2023-04-01T03:53:33;4.00;;;2.13;;
13325;SDS011;6732;51.044;3.746;2023-04-01T03:56:03;3.10;;;2.27;;
13325;SDS011;6732;51.044;3.746;2023-04-01T03:58:30;2.60;;;2.40;;
13325;SDS011;6732;51.044;3.746;2023-04-01T04:00:56;3.17;;;2.27;;
13325;SDS011;6732;51.044;3.746;2023-04-01T04:03:22;4.20;;;2.57;;
13325;SDS011;6732;51.044;3.746;2023-04-01T04:05:48;2.20;;;2.00;;
13325;SDS011;6732;51.044;3.746;2023-04-01T04:08:15;3.03;;;2.10;;
13325;SDS011;6732;51.044;3.746;2023-04-01T04:10:41;2.13;;;1.97;;
13325;SDS011;6732;51.044;3.746;2023-04-01T04:13:08;2.30;;;2.10;;
13325;SDS011;6732;51.044;3.746;2023-04-01T04:15:34;2.47;;;2.23;;
13325;SDS011;6732;51.044;3.746;2023-04-01T04:18:00;2.60;;;2.40;;
13325;SDS011;6732;51.044;3.746;2023-04-01T04:20:26;2.37;;;2.17;;
13325;SDS011;6732;51.044;3.746;2023-04-01T04:22:52;3.43;;;2.23;;
13325;SDS011;6732;51.044;3.746;2023-04-01T04:25:18;3.30;;;2.03;;
13325;SDS011;6732;51.044;3.746;2023-04-01T04:27:43;3.77;;;2.50;;
13325;SDS011;6732;51.044;3.746;2023-04-01T04:30:09;2.40;;;2.20;;
13325;SDS011;6732;51.044;3.746;2023-04-01T04:32:36;2.20;;;2.03;;
13325;SDS011;6732;51.044;3.746;2023-04-01T04:35:02;2.50;;;2.07;;
13325;SDS011;6732;51.044;3.746;2023-04-01T04:37:28;3.60;;;2.40;;
13325;SDS011;6732;51.044;3.746;2023-04-01T04:39:54;2.37;;;2.17;;
13325;SDS011;6732;51.044;3.746;2023-04-01T04:42:20;2.63;;;2.30;;
13325;SDS011;6732;51.044;3.746;2023-04-01T04:44:45;3.70;;;3.00;;
13325;SDS011;6732;51.044;3.746;2023-04-01T04:47:12;6.30;;;3.60;;
13325;SDS011;6732;51.044;3.746;2023-04-01T04:49:38;4.93;;;3.50;;
13325;SDS011;6732;51.044;3.746;2023-04-01T04:52:04;7.23;;;4.00;;
13325;SDS011;6732;51.044;3.746;2023-04-01T04:54:30;7.53;;;4.23;;
13325;SDS011;6732;51.044;3.746;2023-04-01T04:56:56;6.53;;;4.60;;
13325;SDS011;6732;51.044;3.746;2023-04-01T04:59:21;7.93;;;4.80;;
13325;SDS011;6732;51.044;3.746;2023-04-01T05:01:47;7.63;;;4.57;;
13325;SDS011;6732;51.044;3.746;2023-04-01T05:04:13;5.60;;;4.23;;
13325;SDS011;6732;51.044;3.746;2023-04-01T05:06:39;6.43;;;3.87;;
13325;SDS011;6732;51.044;3.746;2023-04-01T05:09:05;4.83;;;3.87;;
13325;SDS011;6732;51.044;3.746;2023-04-01T05:11:31;6.23;;;4.00;;
13325;SDS011;6732;51.044;3.746;2023-04-01T05:13:57;6.83;;;3.70;;
13325;SDS011;6732;51.044;3.746;2023-04-01T05:16:22;5.60;;;3.57;;
13325;SDS011;6732;51.044;3.746;2023-04-01T05:18:48;6.20;;;3.53;;
13325;SDS011;6732;51.044;3.746;2023-04-01T05:21:14;8.13;;;3.60;;
13325;SDS011;6732;51.044;3.746;2023-04-01T05:23:41;8.03;;;3.53;;
13325;SDS011;6732;51.044;3.746;2023-04-01T05:26:09;4.97;;;3.20;;
13325;SDS011;6732;51.044;3.746;2023-04-01T05:28:39;6.87;;;3.27;;
13325;SDS011;6732;51.044;3.746;2023-04-01T05:31:05;4.23;;;3.13;;
13325;SDS011;6732;51.044;3.746;2023-04-01T05:33:32;3.50;;;3.07;;
13325;SDS011;6732;51.044;3.746;2023-04-01T05:36:11;6.17;;;3.20;;
13325;SDS011;6732;51.044;3.746;2023-04-01T05:38:39;7.20;;;3.30;;
13325;SDS011;6732;51.044;3.746;2023-04-01T05:41:05;4.33;;;3.17;;
13325;SDS011;6732;51.044;3.746;2023-04-01T05:43:31;4.80;;;3.17;;
13325;SDS011;6732;51.044;3.746;2023-04-01T05:46:00;4.33;;;2.70;;
13325;SDS011;6732;51.044;3.746;2023-04-01T05:48:26;3.30;;;2.70;;
13325;SDS011;6732;51.044;3.746;2023-04-01T05:50:51;4.10;;;2.63;;
13325;SDS011;6732;51.044;3.746;2023-04-01T05:53:17;3.90;;;2.77;;
13325;SDS011;6732;51.044;3.746;2023-04-01T05:55:43;2.50;;;2.20;;
13325;SDS011;6732;51.044;3.746;2023-04-01T05:58:09;3.00;;;2.20;;
13325;SDS011;6732;51.044;3.746;2023-04-01T06:00:35;2.43;;;1.70;;
13325;SDS011;6732;51.044;3.746;2023-04-01T06:03:01;5.13;;;1.77;;
13325;SDS011;6732;51.044;3.746;2023-04-01T06:05:28;2.10;;;1.50;;
13325;SDS011;6732;51.044;3.746;2023-04-01T06:07:59;1.70;;;1.60;;
13325;SDS011;6732;51.044;3.746;2023-04-01T06:16:16;1.90;;;1.80;;
13325;SDS011;6732;51.044;3.746;2023-04-01T06:19:18;4.97;;;2.13;;
13325;SDS011;6732;51.044;3.746;2023-04-01T06:39:25;4.10;;;2.30;;
13325;SDS011;6732;51.044;3.746;2023-04-01T06:48:00;2.50;;;1.47;;
13325;SDS011;6732;51.044;3.746;2023-04-01T06:50:43;2.07;;;1.33;;
13325;SDS011;6732;51.044;3.746;2023-04-01T06:53:36;2.47;;;1.40;;
13325;SDS011;6732;51.044;3.746;2023-04-01T06:56:14;1.43;;;1.20;;
13325;SDS011;6732;51.044;3.746;2023-04-01T07:01:21;1.53;;;1.40;;
13325;SDS011;6732;51.044;3.746;2023-04-01T07:06:45;1.30;;;1.20;;
13325;SDS011;6732;51.044;3.746;2023-04-01T07:09:20;1.07;;;1.07;;
13325;SDS011;6732;51.044;3.746;2023-04-01T07:11:50;1.20;;;1.10;;
13325;SDS011;6732;51.044;3.746;2023-04-01T07:14:25;1.37;;;1.20;;
13325;SDS011;6732;51.044;3.746;2023-04-01T07:17:16;1.10;;;1.00;;
13325;SDS011;6732;51.044;3.746;2023-04-01T07:19:48;2.03;;;1.40;;
13325;SDS011;6732;51.044;3.746;2023-04-01T07:25:13;1.43;;;0.87;;
13325;SDS011;6732;51.044;3.746;2023-04-01T07:27:41;1.63;;;1.00;;
13325;SDS011;6732;51.044;3.746;2023-04-01T07:33:28;0.90;;;0.90;;
13325;SDS011;6732;51.044;3.746;2023-04-01T07:38:30;1.60;;;1.00;;
13325;SDS011;6732;51.044;3.746;2023-04-01T07:41:48;1.00;;;0.90;;
13325;SDS011;6732;51.044;3.746;2023-04-01T07:44:06;1.57;;;1.30;;
13325;SDS011;6732;51.044;3.746;2023-04-01T07:52:35;1.20;;;1.10;;
13325;SDS011;6732;51.044;3.746;2023-04-01T07:55:33;0.90;;;0.87;;
13325;SDS011;6732;51.044;3.746;2023-04-01T08:00:44;1.60;;;1.13;;
13325;SDS011;6732;51.044;3.746;2023-04-01T08:03:35;2.47;;;1.20;;
13325;SDS011;6732;51.044;3.746;2023-04-01T08:20:14;3.10;;;1.97;;
13325;SDS011;6732;51.044;3.746;2023-04-01T08:23:10;1.90;;;1.70;;
13325;SDS011;6732;51.044;3.746;2023-04-01T08:25:41;3.77;;;1.90;;
13325;SDS011;6732;51.044;3.746;2023-04-01T08:31:11;3.77;;;2.00;;
13325;SDS011;6732;51.044;3.746;2023-04-01T08:33:41;3.03;;;1.90;;
13325;SDS011;6732;51.044;3.746;2023-04-01T08:36:16;4.27;;;2.23;;
13325;SDS011;6732;51.044;3.746;2023-04-01T08:38:54;4.77;;;2.00;;
13325;SDS011;6732;51.044;3.746;2023-04-01T08:41:42;7.53;;;2.40;;
13325;SDS011;6732;51.044;3.746;2023-04-01T08:56:12;3.60;;;2.17;;
13325;SDS011;6732;51.044;3.746;2023-04-01T08:58:52;3.97;;;2.00;;
13325;SDS011;6732;51.044;3.746;2023-04-01T09:01:32;4.47;;;2.10;;
13325;SDS011;6732;51.044;3.746;2023-04-01T09:04:23;5.70;;;2.27;;
13325;SDS011;6732;51.044;3.746;2023-04-01T09:20:56;2.77;;;1.50;;
13325;SDS011;6732;51.044;3.746;2023-04-01T09:35:21;2.83;;;1.53;;
13325;SDS011;6732;51.044;3.746;2023-04-01T09:43:33;2.57;;;1.10;;
13325;SDS011;6732;51.044;3.746;2023-04-01T09:49:03;3.10;;;1.07;;
13325;SDS011;6732;51.044;3.746;2023-04-01T09:51:39;3.70;;;1.80;;
13325;SDS011;6732;51.044;3.746;2023-04-01T09:54:22;3.50;;;1.93;;
13325;SDS011;6732;51.044;3.746;2023-04-01T10:13:52;2.43;;;1.40;;
13325;SDS011;6732;51.044;3.746;2023-04-01T10:22:00;1.97;;;1.63;;
13325;SDS011;6732;51.044;3.746;2023-04-01T10:27:44;4.80;;;2.20;;
13325;SDS011;6732;51.044;3.746;2023-04-01T10:36:09;2.70;;;1.70;;
13325;SDS011;6732;51.044;3.746;2023-04-01T10:49:35;2.13;;;1.70;;
13325;SDS011;6732;51.044;3.746;2023-04-01T11:01:05;1.97;;;1.17;;
13325;SDS011;6732;51.044;3.746;2023-04-01T11:09:07;1.30;;;0.90;;
13325;SDS011;6732;51.044;3.746;2023-04-01T11:20:54;2.23;;;1.03;;
13325;SDS011;6732;51.044;3.746;2023-04-01T11:24:04;1.27;;;0.90;;
13325;SDS011;6732;51.044;3.746;2023-04-01T11:26:55;2.57;;;1.00;;
13325;SDS011;6732;51.044;3.746;2023-04-01T11:29:36;1.40;;;1.10;;
13325;SDS011;6732;51.044;3.746;2023-04-01T11:40:29;3.37;;;1.37;;
13325;SDS011;6732;51.044;3.746;2023-04-01T11:43:18;3.03;;;1.33;;
13325;SDS011;6732;51.044;3.746;2023-04-01T11:45:55;2.23;;;1.50;;
13325;SDS011;6732;51.044;3.746;2023-04-01T11:52:05;4.07;;;1.50;;
13325;SDS011;6732;51.044;3.746;2023-04-01T12:11:32;2.37;;;1.70;;
13325;SDS011;6732;51.044;3.746;2023-04-01T12:19:27;4.40;;;2.00;;
13325;SDS011;6732;51.044;3.746;2023-04-01T12:32:47;4.17;;;2.37;;
13325;SDS011;6732;51.044;3.746;2023-04-01T12:41:46;2.43;;;1.67;;
13325;SDS011;6732;51.044;3.746;2023-04-01T12:47:28;2.60;;;1.70;;
13325;SDS011;6732;51.044;3.746;2023-04-01T12:55:41;3.73;;;1.60;;
13325;SDS011;6732;51.044;3.746;2023-04-01T13:04:15;2.43;;;1.13;;
13325;SDS011;6732;51.044;3.746;2023-04-01T13:09:46;1.87;;;1.00;;
13325;SDS011;6732;51.044;3.746;2023-04-01T13:13:34;1.00;;;0.90;;
13325;SDS011;6732;51.044;3.746;2023-04-01T13:16:08;1.90;;;1.30;;
13325;SDS011;6732;51.044;3.746;2023-04-01T13:21:50;2.40;;;1.03;;
13325;SDS011;6732;51.044;3.746;2023-04-01T13:24:40;2.33;;;1.07;;
13325;SDS011;6732;51.044;3.746;2023-04-01T13:38:33;1.90;;;1.10;;
13325;SDS011;6732;51.044;3.746;2023-04-01T13:43:54;1.90;;;1.37;;
13325;SDS011;6732;51.044;3.746;2023-04-01T13:49:13;1.43;;;1.03;;
13325;SDS011;6732;51.044;3.746;2023-04-01T13:54:38;1.73;;;0.90;;
13325;SDS011;6732;51.044;3.746;2023-04-01T14:05:29;2.40;;;0.70;;
13325;SDS011;6732;51.044;3.746;2023-04-01T14:11:03;1.30;;;1.00;;
13325;SDS011;6732;51.044;3.746;2023-04-01T14:19:03;2.97;;;0.87;;
13325;SDS011;6732;51.044;3.746;2023-04-01T14:30:40;1.90;;;0.90;;
13325;SDS011;6732;51.044;3.746;2023-04-01T14:38:58;2.60;;;1.43;;
13325;SDS011;6732;51.044;3.746;2023-04-01T14:42:30;3.30;;;1.10;;
13325;SDS011;6732;51.044;3.746;2023-04-01T14:47:43;3.07;;;1.10;;
13325;SDS011;6732;51.044;3.746;2023-04-01T14:50:28;1.60;;;1.00;;
13325;SDS011;6732;51.044;3.746;2023-04-01T14:53:11;3.07;;;1.07;;
13325;SDS011;6732;51.044;3.746;2023-04-01T14:58:09;1.30;;;1.20;;
13325;SDS011;6732;51.044;3.746;2023-04-01T15:00:50;2.93;;;1.20;;
13325;SDS011;6732;51.044;3.746;2023-04-01T15:03:31;1.80;;;1.40;;
13325;SDS011;6732;51.044;3.746;2023-04-01T15:22:18;2.17;;;1.30;;
13325;SDS011;6732;51.044;3.746;2023-04-01T15:25:28;2.97;;;1.43;;
13325;SDS011;6732;51.044;3.746;2023-04-01T15:41:42;1.70;;;1.10;;
13325;SDS011;6732;51.044;3.746;2023-04-01T15:44:46;2.20;;;1.30;;
13325;SDS011;6732;51.044;3.746;2023-04-01T15:47:32;1.80;;;1.20;;
13325;SDS011;6732;51.044;3.746;2023-04-01T15:53:05;3.00;;;1.40;;
13325;SDS011;6732;51.044;3.746;2023-04-01T15:58:49;3.30;;;2.27;;
13325;SDS011;6732;51.044;3.746;2023-04-01T16:01:44;3.77;;;2.00;;
13325;SDS011;6732;51.044;3.746;2023-04-01T16:07:50;4.10;;;1.87;;
13325;SDS011;6732;51.044;3.746;2023-04-01T16:19:19;3.37;;;1.63;;
13325;SDS011;6732;51.044;3.746;2023-04-01T16:21:58;2.83;;;1.33;;
13325;SDS011;6732;51.044;3.746;2023-04-01T16:27:18;1.60;;;1.37;;
13325;SDS011;6732;51.044;3.746;2023-04-01T16:30:23;1.63;;;1.37;;
13325;SDS011;6732;51.044;3.746;2023-04-01T16:33:04;3.83;;;1.37;;
13325;SDS011;6732;51.044;3.746;2023-04-01T16:38:15;2.10;;;1.37;;
13325;SDS011;6732;51.044;3.746;2023-04-01T16:56:44;5.07;;;2.17;;
13325;SDS011;6732;51.044;3.746;2023-04-01T16:59:19;3.43;;;2.50;;
13325;SDS011;6732;51.044;3.746;2023-04-01T17:02:02;2.80;;;2.50;;
13325;SDS011;6732;51.044;3.746;2023-04-01T17:04:38;3.90;;;2.20;;
13325;SDS011;6732;51.044;3.746;2023-04-01T17:12:48;3.63;;;2.67;;
13325;SDS011;6732;51.044;3.746;2023-04-01T17:18:20;3.50;;;2.00;;
13325;SDS011;6732;51.044;3.746;2023-04-01T17:21:10;3.60;;;2.57;;
13325;SDS011;6732;51.044;3.746;2023-04-01T17:23:43;3.07;;;2.20;;
13325;SDS011;6732;51.044;3.746;2023-04-01T17:26:18;3.80;;;2.37;;
13325;SDS011;6732;51.044;3.746;2023-04-01T17:42:57;2.50;;;2.30;;
13325;SDS011;6732;51.044;3.746;2023-04-01T17:45:57;5.03;;;2.77;;
13325;SDS011;6732;51.044;3.746;2023-04-01T18:01:54;5.90;;;3.80;;
13325;SDS011;6732;51.044;3.746;2023-04-01T18:10:56;7.90;;;4.67;;
13325;SDS011;6732;51.044;3.746;2023-04-01T18:16:53;8.20;;;5.10;;
13325;SDS011;6732;51.044;3.746;2023-04-01T18:19:43;9.00;;;4.60;;
13325;SDS011;6732;51.044;3.746;2023-04-01T18:22:36;10.73;;;5.20;;
13325;SDS011;6732;51.044;3.746;2023-04-01T18:25:33;9.33;;;5.67;;
13325;SDS011;6732;51.044;3.746;2023-04-01T18:30:58;9.73;;;5.83;;
13325;SDS011;6732;51.044;3.746;2023-04-01T18:36:19;11.93;;;6.77;;
13325;SDS011;6732;51.044;3.746;2023-04-01T18:39:03;11.43;;;6.60;;
13325;SDS011;6732;51.044;3.746;2023-04-01T18:41:39;10.80;;;5.83;;
13325;SDS011;6732;51.044;3.746;2023-04-01T18:44:26;11.40;;;6.60;;
13325;SDS011;6732;51.044;3.746;2023-04-01T18:49:55;11.90;;;7.40;;
13325;SDS011;6732;51.044;3.746;2023-04-01T18:52:40;11.93;;;7.17;;
13325;SDS011;6732;51.044;3.746;2023-04-01T18:58:18;15.73;;;8.50;;
13325;SDS011;6732;51.044;3.746;2023-04-01T19:03:57;16.33;;;7.70;;
13325;SDS011;6732;51.044;3.746;2023-04-01T19:09:11;13.53;;;7.80;;
13325;SDS011;6732;51.044;3.746;2023-04-01T19:14:51;15.27;;;6.93;;
13325;SDS011;6732;51.044;3.746;2023-04-01T19:17:29;14.73;;;7.00;;
13325;SDS011;6732;51.044;3.746;2023-04-01T19:20:07;15.73;;;7.30;;
13325;SDS011;6732;51.044;3.746;2023-04-01T19:23:19;16.10;;;7.03;;
13325;SDS011;6732;51.044;3.746;2023-04-01T19:39:28;13.60;;;5.80;;
13325;SDS011;6732;51.044;3.746;2023-04-01T19:50:29;13.87;;;5.47;;
13325;SDS011;6732;51.044;3.746;2023-04-01T19:53:13;16.40;;;5.60;;
13325;SDS011;6732;51.044;3.746;2023-04-01T19:56:22;15.17;;;5.63;;
13325;SDS011;6732;51.044;3.746;2023-04-01T19:58:41;12.77;;;5.00;;
13325;SDS011;6732;51.044;3.746;2023-04-01T20:01:38;11.37;;;5.00;;
13325;SDS011;6732;51.044;3.746;2023-04-01T20:04:17;17.43;;;5.67;;
13325;SDS011;6732;51.044;3.746;2023-04-01T20:07:07;14.33;;;5.30;;
13325;SDS011;6732;51.044;3.746;2023-04-01T20:16:02;15.60;;;5.93;;
13325;SDS011;6732;51.044;3.746;2023-04-01T20:21:26;16.60;;;6.20;;
13325;SDS011;6732;51.044;3.746;2023-04-01T20:24:14;16.53;;;6.50;;
13325;SDS011;6732;51.044;3.746;2023-04-01T20:26:51;18.33;;;7.20;;
13325;SDS011;6732;51.044;3.746;2023-04-01T20:29:45;16.67;;;6.73;;
13325;SDS011;6732;51.044;3.746;2023-04-01T20:32:35;13.57;;;6.83;;
13325;SDS011;6732;51.044;3.746;2023-04-01T20:46:32;16.87;;;8.10;;
13325;SDS011;6732;51.044;3.746;2023-04-01T20:57:24;18.40;;;9.27;;
13325;SDS011;6732;51.044;3.746;2023-04-01T21:02:51;25.17;;;11.50;;
13325;SDS011;6732;51.044;3.746;2023-04-01T21:08:02;20.80;;;10.67;;
13325;SDS011;6732;51.044;3.746;2023-04-01T21:10:43;25.30;;;10.73;;
13325;SDS011;6732;51.044;3.746;2023-04-01T21:13:31;22.17;;;10.70;;
13325;SDS011;6732;51.044;3.746;2023-04-01T21:16:16;25.03;;;11.77;;
13325;SDS011;6732;51.044;3.746;2023-04-01T21:18:50;23.20;;;11.27;;
13325;SDS011;6732;51.044;3.746;2023-04-01T21:24:31;31.00;;;12.50;;
13325;SDS011;6732;51.044;3.746;2023-04-01T21:32:53;23.50;;;11.63;;
13325;SDS011;6732;51.044;3.746;2023-04-01T21:38:12;25.07;;;11.40;;
13325;SDS011;6732;51.044;3.746;2023-04-01T21:43:21;26.00;;;11.80;;
13325;SDS011;6732;51.044;3.746;2023-04-01T22:00:18;30.50;;;12.43;;
13325;SDS011;6732;51.044;3.746;2023-04-01T22:08:24;24.53;;;10.93;;
13325;SDS011;6732;51.044;3.746;2023-04-01T22:10:55;23.93;;;10.80;;
13325;SDS011;6732;51.044;3.746;2023-04-01T22:13:50;25.63;;;11.40;;
13325;SDS011;6732;51.044;3.746;2023-04-01T22:16:36;28.30;;;11.77;;
13325;SDS011;6732;51.044;3.746;2023-04-01T22:19:14;23.97;;;12.07;;
13325;SDS011;6732;51.044;3.746;2023-04-01T22:21:50;27.00;;;12.20;;
13325;SDS011;6732;51.044;3.746;2023-04-01T22:32:23;24.07;;;12.63;;
13325;SDS011;6732;51.044;3.746;2023-04-01T22:37:43;31.30;;;13.70;;
13325;SDS011;6732;51.044;3.746;2023-04-01T22:43:16;24.30;;;13.30;;
13325;SDS011;6732;51.044;3.746;2023-04-01T22:46:03;23.37;;;12.77;;
13325;SDS011;6732;51.044;3.746;2023-04-01T22:48:47;29.33;;;13.90;;
13325;SDS011;6732;51.044;3.746;2023-04-01T22:56:46;25.23;;;14.60;;
13325;SDS011;6732;51.044;3.746;2023-04-01T23:02:04;29.67;;;15.07;;
13325;SDS011;6732;51.044;3.746;2023-04-01T23:04:39;21.77;;;14.03;;
13325;SDS011;6732;51.044;3.746;2023-04-01T23:09:56;24.73;;;14.67;;
13325;SDS011;6732;51.044;3.746;2023-04-01T23:12:24;23.53;;;14.27;;
13325;SDS011;6732;51.044;3.746;2023-04-01T23:14:52;24.27;;;15.37;;
13325;SDS011;6732;51.044;3.746;2023-04-01T23:22:35;24.40;;;15.33;;
13325;SDS011;6732;51.044;3.746;2023-04-01T23:27:59;31.13;;;17.10;;
13325;SDS011;6732;51.044;3.746;2023-04-01T23:30:46;25.03;;;18.13;;
13325;SDS011;6732;51.044;3.746;2023-04-01T23:35:51;25.77;;;19.23;;
13325;SDS011;6732;51.044;3.746;2023-04-01T23:38:20;31.27;;;20.77;;
13325;SDS011;6732;51.044;3.746;2023-04-01T23:40:49;28.53;;;20.10;;
13325;SDS011;6732;51.044;3.746;2023-04-01T23:45:49;27.87;;;21.47;;
13325;SDS011;6732;51.044;3.746;2023-04-01T23:48:15;31.00;;;22.63;;
13325;SDS011;6732;51.044;3.746;2023-04-01T23:50:44;27.77;;;23.50;;
13325;SDS011;6732;51.044;3.746;2023-04-01T23:53:19;28.23;;;22.27;;
13325;SDS011;6732;51.044;3.746;2023-04-01T23:55:49;27.13;;;21.77;;
13325;SDS011;6732;51.044;3.746;2023-04-01T23:58:21;28.63;;;22.90;;
